sensor_id;sensor_type;location;lat;lon;timestamp;pressure;altitude;pressure_sealevel;temperature;humidity
9764;BME280;4921;43.214;27.936;2022-11-13T00:00:47;102728.53;;;13.74;100.00
9764;BME280;4921;43.214;27.936;2022-11-13T00:03:15;102720.59;;;13.74;100.00
9764;BME280;4921;43.214;27.936;2022-11-13T00:05:42;102725.88;;;13.74;100.00
9764;BME280;4921;43.214;27.936;2022-11-13T00:08:09;102723.16;;;13.75;100.00
9764;BME280;4921;43.214;27.936;2022-11-13T00:10:36;102723.50;;;13.69;100.00
9764;BME280;4921;43.214;27.936;2022-11-13T00:13:03;102712.38;;;13.78;100.00
9764;BME280;4921;43.214;27.936;2022-11-13T00:15:30;102712.78;;;13.87;100.00
9764;BME280;4921;43.214;27.936;2022-11-13T00:17:59;102709.19;;;13.88;100.00
9764;BME280;4921;43.214;27.936;2022-11-13T00:20:28;102706.47;;;13.89;100.00
9764;BME280;4921;43.214;27.936;2022-11-13T00:22:55;102707.41;;;13.88;100.00
9764;BME280;4921;43.214;27.936;2022-11-13T00:25:22;102705.63;;;13.89;100.00
9764;BME280;4921;43.214;27.936;2022-11-13T00:27:49;102707.03;;;13.94;100.00
9764;BME280;4921;43.214;27.936;2022-11-13T00:30:16;102695.59;;;13.94;100.00
9764;BME280;4921;43.214;27.936;2022-11-13T00:32:42;102692.56;;;13.86;100.00
9764;BME280;4921;43.214;27.936;2022-11-13T00:35:09;102695.97;;;13.88;100.00
9764;BME280;4921;43.214;27.936;2022-11-13T00:37:38;102698.44;;;13.91;100.00
9764;BME280;4921;43.214;27.936;2022-11-13T00:40:05;102693.44;;;13.86;100.00
9764;BME280;4921;43.214;27.936;2022-11-13T00:42:32;102695.88;;;13.89;100.00
9764;BME280;4921;43.214;27.936;2022-11-13T00:44:59;102695.59;;;13.94;100.00
9764;BME280;4921;43.214;27.936;2022-11-13T00:47:26;102695.06;;;14.03;100.00
9764;BME280;4921;43.214;27.936;2022-11-13T00:49:53;102688.41;;;13.96;100.00
9764;BME280;4921;43.214;27.936;2022-11-13T00:52:20;102692.94;;;13.94;100.00
9764;BME280;4921;43.214;27.936;2022-11-13T00:54:48;102692.03;;;13.95;100.00
9764;BME280;4921;43.214;27.936;2022-11-13T00:57:15;102690.03;;;13.98;100.00
9764;BME280;4921;43.214;27.936;2022-11-13T00:59:42;102690.91;;;13.99;100.00
9764;BME280;4921;43.214;27.936;2022-11-13T01:02:08;102692.50;;;14.01;100.00
9764;BME280;4921;43.214;27.936;2022-11-13T01:04:37;102694.94;;;14.04;100.00
9764;BME280;4921;43.214;27.936;2022-11-13T01:07:04;102691.53;;;14.02;100.00
9764;BME280;4921;43.214;27.936;2022-11-13T01:09:31;102689.22;;;14.12;100.00
9764;BME280;4921;43.214;27.936;2022-11-13T01:11:59;102681.53;;;14.21;100.00
9764;BME280;4921;43.214;27.936;2022-11-13T01:14:26;102688.81;;;14.18;100.00
9764;BME280;4921;43.214;27.936;2022-11-13T01:16:53;102684.94;;;14.23;100.00
9764;BME280;4921;43.214;27.936;2022-11-13T01:19:19;102685.03;;;14.22;100.00
9764;BME280;4921;43.214;27.936;2022-11-13T01:21:46;102684.47;;;14.17;100.00
9764;BME280;4921;43.214;27.936;2022-11-13T01:24:13;102689.69;;;14.18;100.00
9764;BME280;4921;43.214;27.936;2022-11-13T01:26:40;102683.06;;;14.25;100.00
9764;BME280;4921;43.214;27.936;2022-11-13T01:29:09;102685.25;;;14.19;100.00
9764;BME280;4921;43.214;27.936;2022-11-13T01:31:37;102686.16;;;14.18;100.00
9764;BME280;4921;43.214;27.936;2022-11-13T01:34:04;102681.47;;;14.23;100.00
9764;BME280;4921;43.214;27.936;2022-11-13T01:36:30;102681.69;;;14.34;100.00
9764;BME280;4921;43.214;27.936;2022-11-13T01:38:57;102680.53;;;14.38;100.00
9764;BME280;4921;43.214;27.936;2022-11-13T01:41:26;102680.72;;;14.35;100.00
9764;BME280;4921;43.214;27.936;2022-11-13T01:43:54;102679.63;;;14.23;100.00
9764;BME280;4921;43.214;27.936;2022-11-13T01:46:26;102671.81;;;14.22;100.00
9764;BME280;4921;43.214;27.936;2022-11-13T01:48:57;102668.22;;;14.23;100.00
9764;BME280;4921;43.214;27.936;2022-11-13T01:51:29;102658.47;;;14.09;100.00
9764;BME280;4921;43.214;27.936;2022-11-13T01:53:58;102668.78;;;14.28;100.00
9764;BME280;4921;43.214;27.936;2022-11-13T01:56:27;102665.38;;;14.26;100.00
9764;BME280;4921;43.214;27.936;2022-11-13T01:59:00;102667.47;;;14.21;100.00
9764;BME280;4921;43.214;27.936;2022-11-13T02:01:28;102668.41;;;14.06;100.00
9764;BME280;4921;43.214;27.936;2022-11-13T02:03:55;102661.31;;;13.92;100.00
9764;BME280;4921;43.214;27.936;2022-11-13T02:06:23;102667.66;;;14.04;100.00
9764;BME280;4921;43.214;27.936;2022-11-13T02:08:51;102663.47;;;14.00;100.00
9764;BME280;4921;43.214;27.936;2022-11-13T02:11:19;102669.34;;;13.91;100.00
9764;BME280;4921;43.214;27.936;2022-11-13T02:13:46;102677.34;;;13.75;100.00
9764;BME280;4921;43.214;27.936;2022-11-13T02:16:14;102670.56;;;13.71;100.00
9764;BME280;4921;43.214;27.936;2022-11-13T02:18:43;102682.38;;;13.80;100.00
9764;BME280;4921;43.214;27.936;2022-11-13T02:21:19;102683.00;;;13.69;100.00
9764;BME280;4921;43.214;27.936;2022-11-13T02:23:55;102675.78;;;13.57;100.00
9764;BME280;4921;43.214;27.936;2022-11-13T02:26:25;102678.63;;;13.54;100.00
9764;BME280;4921;43.214;27.936;2022-11-13T02:28:54;102668.53;;;13.60;100.00
9764;BME280;4921;43.214;27.936;2022-11-13T02:31:21;102674.28;;;13.53;100.00
9764;BME280;4921;43.214;27.936;2022-11-13T02:33:48;102677.88;;;13.52;100.00
9764;BME280;4921;43.214;27.936;2022-11-13T02:36:15;102673.19;;;13.41;100.00
9764;BME280;4921;43.214;27.936;2022-11-13T02:38:44;102673.75;;;13.32;100.00
9764;BME280;4921;43.214;27.936;2022-11-13T02:41:12;102679.66;;;13.22;100.00
9764;BME280;4921;43.214;27.936;2022-11-13T02:43:40;102679.31;;;13.12;100.00
9764;BME280;4921;43.214;27.936;2022-11-13T02:46:07;102679.16;;;13.15;100.00
9764;BME280;4921;43.214;27.936;2022-11-13T02:48:34;102680.50;;;13.22;100.00
9764;BME280;4921;43.214;27.936;2022-11-13T02:51:01;102693.13;;;13.17;100.00
9764;BME280;4921;43.214;27.936;2022-11-13T02:53:28;102686.66;;;13.07;100.00
9764;BME280;4921;43.214;27.936;2022-11-13T02:55:54;102691.66;;;12.96;100.00
9764;BME280;4921;43.214;27.936;2022-11-13T02:58:21;102694.13;;;12.99;100.00
9764;BME280;4921;43.214;27.936;2022-11-13T03:00:50;102688.94;;;12.97;100.00
9764;BME280;4921;43.214;27.936;2022-11-13T03:03:17;102685.59;;;12.94;100.00
9764;BME280;4921;43.214;27.936;2022-11-13T03:05:47;102690.06;;;12.78;100.00
9764;BME280;4921;43.214;27.936;2022-11-13T03:08:14;102689.91;;;12.81;100.00
9764;BME280;4921;43.214;27.936;2022-11-13T03:10:41;102688.53;;;12.74;100.00
9764;BME280;4921;43.214;27.936;2022-11-13T03:13:08;102688.00;;;12.67;100.00
9764;BME280;4921;43.214;27.936;2022-11-13T03:15:35;102681.78;;;12.68;100.00
9764;BME280;4921;43.214;27.936;2022-11-13T03:18:04;102687.00;;;12.70;100.00
9764;BME280;4921;43.214;27.936;2022-11-13T03:20:31;102678.97;;;12.56;100.00
9764;BME280;4921;43.214;27.936;2022-11-13T03:22:58;102683.59;;;12.52;100.00
9764;BME280;4921;43.214;27.936;2022-11-13T03:25:25;102685.84;;;12.43;100.00
9764;BME280;4921;43.214;27.936;2022-11-13T03:27:52;102687.72;;;12.41;100.00
9764;BME280;4921;43.214;27.936;2022-11-13T03:30:19;102683.22;;;12.43;100.00
9764;BME280;4921;43.214;27.936;2022-11-13T03:32:46;102680.06;;;12.36;100.00
9764;BME280;4921;43.214;27.936;2022-11-13T03:35:14;102682.09;;;12.47;100.00
9764;BME280;4921;43.214;27.936;2022-11-13T03:37:41;102682.97;;;12.47;100.00
9764;BME280;4921;43.214;27.936;2022-11-13T03:40:09;102682.19;;;12.45;100.00
9764;BME280;4921;43.214;27.936;2022-11-13T03:42:36;102679.81;;;12.41;100.00
9764;BME280;4921;43.214;27.936;2022-11-13T03:45:03;102665.94;;;12.37;100.00
9764;BME280;4921;43.214;27.936;2022-11-13T03:47:30;102679.91;;;12.39;100.00
9764;BME280;4921;43.214;27.936;2022-11-13T03:49:57;102675.53;;;12.38;100.00
9764;BME280;4921;43.214;27.936;2022-11-13T03:52:25;102679.47;;;12.31;100.00
9764;BME280;4921;43.214;27.936;2022-11-13T03:54:52;102677.84;;;12.29;100.00
9764;BME280;4921;43.214;27.936;2022-11-13T03:57:19;102672.56;;;12.29;100.00
9764;BME280;4921;43.214;27.936;2022-11-13T03:59:46;102680.72;;;12.24;100.00
9764;BME280;4921;43.214;27.936;2022-11-13T04:02:12;102678.25;;;12.21;100.00
9764;BME280;4921;43.214;27.936;2022-11-13T04:04:39;102678.47;;;12.16;100.00
9764;BME280;4921;43.214;27.936;2022-11-13T04:07:06;102681.06;;;12.18;100.00
9764;BME280;4921;43.214;27.936;2022-11-13T04:09:34;102674.53;;;12.08;100.00
9764;BME280;4921;43.214;27.936;2022-11-13T04:12:01;102678.38;;;12.02;100.00
9764;BME280;4921;43.214;27.936;2022-11-13T04:14:28;102671.63;;;11.97;100.00
9764;BME280;4921;43.214;27.936;2022-11-13T04:16:55;102685.59;;;11.82;100.00
9764;BME280;4921;43.214;27.936;2022-11-13T04:19:22;102671.75;;;11.78;100.00
9764;BME280;4921;43.214;27.936;2022-11-13T04:21:49;102677.78;;;11.80;100.00
9764;BME280;4921;43.214;27.936;2022-11-13T04:24:16;102679.28;;;11.69;100.00
9764;BME280;4921;43.214;27.936;2022-11-13T04:26:44;102688.63;;;11.57;100.00
9764;BME280;4921;43.214;27.936;2022-11-13T04:29:11;102679.00;;;11.56;100.00
9764;BME280;4921;43.214;27.936;2022-11-13T04:31:38;102689.53;;;11.56;100.00
9764;BME280;4921;43.214;27.936;2022-11-13T04:34:04;102680.47;;;11.62;100.00
9764;BME280;4921;43.214;27.936;2022-11-13T04:36:31;102691.47;;;11.52;100.00
9764;BME280;4921;43.214;27.936;2022-11-13T04:38:58;102690.03;;;11.47;100.00
9764;BME280;4921;43.214;27.936;2022-11-13T04:41:25;102694.75;;;11.40;100.00
9764;BME280;4921;43.214;27.936;2022-11-13T04:44:11;102698.75;;;11.30;100.00
9764;BME280;4921;43.214;27.936;2022-11-13T04:46:37;102697.91;;;11.30;100.00
9764;BME280;4921;43.214;27.936;2022-11-13T04:49:04;102692.16;;;11.39;100.00
9764;BME280;4921;43.214;27.936;2022-11-13T04:51:31;102692.78;;;11.27;100.00
9764;BME280;4921;43.214;27.936;2022-11-13T04:53:58;102692.78;;;11.27;100.00
9764;BME280;4921;43.214;27.936;2022-11-13T04:56:25;102691.22;;;11.23;100.00
9764;BME280;4921;43.214;27.936;2022-11-13T04:58:52;102691.59;;;11.15;100.00
9764;BME280;4921;43.214;27.936;2022-11-13T05:01:20;102684.13;;;11.06;100.00
9764;BME280;4921;43.214;27.936;2022-11-13T05:03:47;102695.69;;;11.04;100.00
9764;BME280;4921;43.214;27.936;2022-11-13T05:06:14;102684.47;;;11.17;100.00
9764;BME280;4921;43.214;27.936;2022-11-13T05:08:41;102691.75;;;11.12;100.00
9764;BME280;4921;43.214;27.936;2022-11-13T05:11:08;102697.63;;;11.17;100.00
9764;BME280;4921;43.214;27.936;2022-11-13T05:13:35;102688.13;;;11.15;100.00
9764;BME280;4921;43.214;27.936;2022-11-13T05:16:04;102695.19;;;10.96;100.00
9764;BME280;4921;43.214;27.936;2022-11-13T05:18:33;102696.03;;;10.96;100.00
9764;BME280;4921;43.214;27.936;2022-11-13T05:21:02;102690.31;;;10.88;100.00
9764;BME280;4921;43.214;27.936;2022-11-13T05:23:29;102700.06;;;10.86;100.00
9764;BME280;4921;43.214;27.936;2022-11-13T05:26:00;102708.84;;;10.85;100.00
9764;BME280;4921;43.214;27.936;2022-11-13T05:28:27;102706.66;;;10.76;100.00
9764;BME280;4921;43.214;27.936;2022-11-13T05:31:02;102707.03;;;10.68;100.00
9764;BME280;4921;43.214;27.936;2022-11-13T05:33:29;102710.50;;;10.88;100.00
9764;BME280;4921;43.214;27.936;2022-11-13T05:36:01;102707.59;;;10.75;100.00
9764;BME280;4921;43.214;27.936;2022-11-13T05:38:28;102701.84;;;10.67;100.00
9764;BME280;4921;43.214;27.936;2022-11-13T05:41:00;102706.25;;;10.66;100.00
9764;BME280;4921;43.214;27.936;2022-11-13T05:43:27;102720.09;;;10.70;100.00
9764;BME280;4921;43.214;27.936;2022-11-13T05:45:59;102715.25;;;10.61;100.00
9764;BME280;4921;43.214;27.936;2022-11-13T05:48:26;102719.75;;;10.59;100.00
9764;BME280;4921;43.214;27.936;2022-11-13T05:50:53;102712.78;;;10.58;100.00
9764;BME280;4921;43.214;27.936;2022-11-13T05:53:21;102715.34;;;10.59;100.00
9764;BME280;4921;43.214;27.936;2022-11-13T05:55:48;102719.03;;;10.55;100.00
9764;BME280;4921;43.214;27.936;2022-11-13T05:58:15;102722.69;;;10.71;100.00
9764;BME280;4921;43.214;27.936;2022-11-13T06:00:42;102721.91;;;10.69;100.00
9764;BME280;4921;43.214;27.936;2022-11-13T06:03:09;102728.94;;;10.69;100.00
9764;BME280;4921;43.214;27.936;2022-11-13T06:05:36;102738.47;;;10.71;100.00
9764;BME280;4921;43.214;27.936;2022-11-13T06:08:03;102735.13;;;10.68;100.00
9764;BME280;4921;43.214;27.936;2022-11-13T06:10:31;102737.63;;;10.71;100.00
9764;BME280;4921;43.214;27.936;2022-11-13T06:12:58;102730.22;;;10.60;100.00
9764;BME280;4921;43.214;27.936;2022-11-13T06:15:25;102732.91;;;10.59;100.00
9764;BME280;4921;43.214;27.936;2022-11-13T06:17:52;102737.94;;;10.63;100.00
9764;BME280;4921;43.214;27.936;2022-11-13T06:20:19;102733.91;;;10.75;100.00
9764;BME280;4921;43.214;27.936;2022-11-13T06:22:46;102730.28;;;10.78;100.00
9764;BME280;4921;43.214;27.936;2022-11-13T06:25:13;102731.94;;;10.80;100.00
9764;BME280;4921;43.214;27.936;2022-11-13T06:27:41;102730.13;;;10.81;100.00
9764;BME280;4921;43.214;27.936;2022-11-13T06:30:09;102731.63;;;10.86;100.00
9764;BME280;4921;43.214;27.936;2022-11-13T06:32:36;102731.00;;;10.81;100.00
9764;BME280;4921;43.214;27.936;2022-11-13T06:35:04;102723.66;;;10.88;100.00
9764;BME280;4921;43.214;27.936;2022-11-13T06:37:31;102716.31;;;10.94;100.00
9764;BME280;4921;43.214;27.936;2022-11-13T06:39:57;102732.78;;;10.99;100.00
9764;BME280;4921;43.214;27.936;2022-11-13T06:42:24;102729.16;;;11.02;100.00
9764;BME280;4921;43.214;27.936;2022-11-13T06:44:53;102724.66;;;11.04;100.00
9764;BME280;4921;43.214;27.936;2022-11-13T06:47:19;102726.00;;;11.12;100.00
9764;BME280;4921;43.214;27.936;2022-11-13T06:49:46;102720.03;;;11.26;100.00
9764;BME280;4921;43.214;27.936;2022-11-13T06:52:13;102720.16;;;11.41;100.00
9764;BME280;4921;43.214;27.936;2022-11-13T06:54:40;102721.56;;;11.48;100.00
9764;BME280;4921;43.214;27.936;2022-11-13T06:57:07;102723.78;;;11.56;100.00
9764;BME280;4921;43.214;27.936;2022-11-13T06:59:34;102716.28;;;11.66;100.00
9764;BME280;4921;43.214;27.936;2022-11-13T07:02:02;102714.31;;;11.88;100.00
9764;BME280;4921;43.214;27.936;2022-11-13T07:04:29;102711.78;;;12.02;100.00
9764;BME280;4921;43.214;27.936;2022-11-13T07:06:56;102709.13;;;12.19;100.00
9764;BME280;4921;43.214;27.936;2022-11-13T07:09:23;102707.53;;;12.32;100.00
9764;BME280;4921;43.214;27.936;2022-11-13T07:11:50;102705.84;;;12.47;100.00
9764;BME280;4921;43.214;27.936;2022-11-13T07:14:17;102703.94;;;12.66;100.00
9764;BME280;4921;43.214;27.936;2022-11-13T07:16:44;102705.47;;;12.85;100.00
9764;BME280;4921;43.214;27.936;2022-11-13T07:19:12;102700.81;;;13.06;100.00
9764;BME280;4921;43.214;27.936;2022-11-13T07:21:39;102691.81;;;13.24;100.00
9764;BME280;4921;43.214;27.936;2022-11-13T07:24:06;102698.47;;;13.31;100.00
9764;BME280;4921;43.214;27.936;2022-11-13T07:26:33;102695.13;;;13.43;100.00
9764;BME280;4921;43.214;27.936;2022-11-13T07:29:00;102698.34;;;13.48;100.00
9764;BME280;4921;43.214;27.936;2022-11-13T07:31:27;102698.66;;;13.58;100.00
9764;BME280;4921;43.214;27.936;2022-11-13T07:33:53;102685.06;;;13.64;100.00
9764;BME280;4921;43.214;27.936;2022-11-13T07:36:22;102694.16;;;13.74;100.00
9764;BME280;4921;43.214;27.936;2022-11-13T07:38:50;102689.66;;;13.90;100.00
9764;BME280;4921;43.214;27.936;2022-11-13T07:41:17;102693.81;;;14.08;100.00
9764;BME280;4921;43.214;27.936;2022-11-13T07:43:44;102682.28;;;14.23;100.00
9764;BME280;4921;43.214;27.936;2022-11-13T07:46:11;102676.94;;;14.39;100.00
9764;BME280;4921;43.214;27.936;2022-11-13T07:48:38;102680.69;;;14.63;100.00
9764;BME280;4921;43.214;27.936;2022-11-13T07:51:05;102673.38;;;14.81;100.00
9764;BME280;4921;43.214;27.936;2022-11-13T07:53:33;102680.81;;;14.88;100.00
9764;BME280;4921;43.214;27.936;2022-11-13T07:56:04;102680.31;;;14.96;100.00
9764;BME280;4921;43.214;27.936;2022-11-13T07:58:31;102682.56;;;15.02;100.00
9764;BME280;4921;43.214;27.936;2022-11-13T08:01:02;102675.81;;;15.10;100.00
9764;BME280;4921;43.214;27.936;2022-11-13T08:03:29;102672.66;;;15.18;100.00
9764;BME280;4921;43.214;27.936;2022-11-13T08:05:59;102672.34;;;15.22;100.00
9764;BME280;4921;43.214;27.936;2022-11-13T08:08:27;102679.16;;;15.26;100.00
9764;BME280;4921;43.214;27.936;2022-11-13T08:10:56;102665.94;;;15.39;100.00
9764;BME280;4921;43.214;27.936;2022-11-13T08:13:23;102674.25;;;15.47;100.00
9764;BME280;4921;43.214;27.936;2022-11-13T08:15:50;102674.56;;;15.55;100.00
9764;BME280;4921;43.214;27.936;2022-11-13T08:18:17;102674.28;;;15.72;100.00
9764;BME280;4921;43.214;27.936;2022-11-13T08:20:43;102668.78;;;15.88;100.00
9764;BME280;4921;43.214;27.936;2022-11-13T08:23:10;102668.69;;;16.02;100.00
9764;BME280;4921;43.214;27.936;2022-11-13T08:25:37;102674.19;;;16.12;100.00
9764;BME280;4921;43.214;27.936;2022-11-13T08:28:05;102675.22;;;16.22;100.00
9764;BME280;4921;43.214;27.936;2022-11-13T08:30:32;102657.88;;;16.41;100.00
9764;BME280;4921;43.214;27.936;2022-11-13T08:32:59;102653.63;;;16.64;100.00
9764;BME280;4921;43.214;27.936;2022-11-13T08:35:27;102658.81;;;16.89;100.00
9764;BME280;4921;43.214;27.936;2022-11-13T08:37:54;102659.28;;;17.07;100.00
9764;BME280;4921;43.214;27.936;2022-11-13T08:40:26;102662.13;;;17.27;100.00
9764;BME280;4921;43.214;27.936;2022-11-13T08:42:57;102656.00;;;17.50;100.00
9764;BME280;4921;43.214;27.936;2022-11-13T08:45:27;102658.31;;;17.66;100.00
9764;BME280;4921;43.214;27.936;2022-11-13T08:47:58;102657.25;;;17.80;100.00
9764;BME280;4921;43.214;27.936;2022-11-13T08:50:25;102644.06;;;17.89;100.00
9764;BME280;4921;43.214;27.936;2022-11-13T08:52:53;102652.44;;;18.07;100.00
9764;BME280;4921;43.214;27.936;2022-11-13T08:55:20;102651.59;;;18.17;100.00
9764;BME280;4921;43.214;27.936;2022-11-13T08:57:47;102651.69;;;18.27;100.00
9764;BME280;4921;43.214;27.936;2022-11-13T09:00:14;102642.97;;;18.36;100.00
9764;BME280;4921;43.214;27.936;2022-11-13T09:02:43;102644.22;;;18.54;100.00
9764;BME280;4921;43.214;27.936;2022-11-13T09:05:10;102641.63;;;18.64;100.00
9764;BME280;4921;43.214;27.936;2022-11-13T09:07:37;102646.09;;;18.74;100.00
9764;BME280;4921;43.214;27.936;2022-11-13T09:10:05;102631.63;;;18.88;100.00
9764;BME280;4921;43.214;27.936;2022-11-13T09:12:31;102633.25;;;19.00;100.00
9764;BME280;4921;43.214;27.936;2022-11-13T09:14:58;102628.16;;;19.08;100.00
9764;BME280;4921;43.214;27.936;2022-11-13T09:17:25;102625.19;;;19.22;100.00
9764;BME280;4921;43.214;27.936;2022-11-13T09:19:54;102617.97;;;19.34;100.00
9764;BME280;4921;43.214;27.936;2022-11-13T09:22:20;102615.53;;;19.42;100.00
9764;BME280;4921;43.214;27.936;2022-11-13T09:24:47;102617.88;;;19.56;100.00
9764;BME280;4921;43.214;27.936;2022-11-13T09:27:14;102608.09;;;19.66;100.00
9764;BME280;4921;43.214;27.936;2022-11-13T09:29:41;102608.84;;;19.77;100.00
9764;BME280;4921;43.214;27.936;2022-11-13T09:32:08;102594.28;;;19.91;100.00
9764;BME280;4921;43.214;27.936;2022-11-13T09:34:35;102600.09;;;20.06;100.00
9764;BME280;4921;43.214;27.936;2022-11-13T09:37:03;102598.03;;;20.19;100.00
9764;BME280;4921;43.214;27.936;2022-11-13T09:39:31;102592.22;;;20.25;100.00
9764;BME280;4921;43.214;27.936;2022-11-13T09:42:08;102583.66;;;20.31;100.00
9764;BME280;4921;43.214;27.936;2022-11-13T09:44:42;102574.50;;;20.43;100.00
9764;BME280;4921;43.214;27.936;2022-11-13T09:47:15;102575.66;;;20.60;100.00
9764;BME280;4921;43.214;27.936;2022-11-13T09:49:46;102566.94;;;20.67;100.00
9764;BME280;4921;43.214;27.936;2022-11-13T09:52:18;102567.78;;;20.77;100.00
9764;BME280;4921;43.214;27.936;2022-11-13T09:54:46;102564.84;;;20.80;100.00
9764;BME280;4921;43.214;27.936;2022-11-13T09:57:22;102564.97;;;20.50;100.00
9764;BME280;4921;43.214;27.936;2022-11-13T09:59:58;102555.00;;;20.62;100.00
9764;BME280;4921;43.214;27.936;2022-11-13T10:02:33;102556.69;;;20.72;100.00
9764;BME280;4921;43.214;27.936;2022-11-13T10:05:08;102552.44;;;20.31;100.00
9764;BME280;4921;43.214;27.936;2022-11-13T10:07:43;102564.91;;;19.61;100.00
9764;BME280;4921;43.214;27.936;2022-11-13T10:10:30;102556.75;;;19.93;100.00
9764;BME280;4921;43.214;27.936;2022-11-13T10:13:00;102559.66;;;19.80;100.00
9764;BME280;4921;43.214;27.936;2022-11-13T10:15:28;102556.50;;;19.96;100.00
9764;BME280;4921;43.214;27.936;2022-11-13T10:17:59;102528.97;;;19.65;100.00
9764;BME280;4921;43.214;27.936;2022-11-13T10:20:33;102545.03;;;19.44;100.00
9764;BME280;4921;43.214;27.936;2022-11-13T10:23:07;102554.91;;;19.12;100.00
9764;BME280;4921;43.214;27.936;2022-11-13T10:25:36;102544.88;;;19.04;100.00
9764;BME280;4921;43.214;27.936;2022-11-13T10:28:11;102537.31;;;19.30;100.00
9764;BME280;4921;43.214;27.936;2022-11-13T10:30:40;102551.09;;;18.94;100.00
9764;BME280;4921;43.214;27.936;2022-11-13T10:33:08;102541.50;;;19.02;100.00
9764;BME280;4921;43.214;27.936;2022-11-13T10:35:45;102545.81;;;19.15;100.00
9764;BME280;4921;43.214;27.936;2022-11-13T10:38:20;102544.75;;;19.27;100.00
9764;BME280;4921;43.214;27.936;2022-11-13T10:40:49;102534.22;;;19.25;100.00
9764;BME280;4921;43.214;27.936;2022-11-13T10:43:17;102540.13;;;18.87;100.00
9764;BME280;4921;43.214;27.936;2022-11-13T10:45:53;102535.91;;;18.53;100.00
9764;BME280;4921;43.214;27.936;2022-11-13T10:48:22;102529.50;;;18.76;100.00
9764;BME280;4921;43.214;27.936;2022-11-13T10:50:54;102531.53;;;18.84;100.00
9764;BME280;4921;43.214;27.936;2022-11-13T10:53:25;102534.00;;;18.96;100.00
9764;BME280;4921;43.214;27.936;2022-11-13T10:55:55;102532.44;;;18.94;100.00
9764;BME280;4921;43.214;27.936;2022-11-13T10:58:22;102528.78;;;18.74;100.00
9764;BME280;4921;43.214;27.936;2022-11-13T11:00:50;102531.91;;;18.79;100.00
9764;BME280;4921;43.214;27.936;2022-11-13T11:03:19;102526.00;;;18.76;100.00
9764;BME280;4921;43.214;27.936;2022-11-13T11:05:55;102532.88;;;18.78;100.00
9764;BME280;4921;43.214;27.936;2022-11-13T11:08:28;102520.41;;;18.79;100.00
9764;BME280;4921;43.214;27.936;2022-11-13T11:10:58;102524.53;;;18.51;100.00
9764;BME280;4921;43.214;27.936;2022-11-13T11:13:43;102526.44;;;18.60;100.00
9764;BME280;4921;43.214;27.936;2022-11-13T11:16:13;102519.19;;;18.40;100.00
9764;BME280;4921;43.214;27.936;2022-11-13T11:18:46;102525.81;;;18.03;100.00
9764;BME280;4921;43.214;27.936;2022-11-13T11:21:17;102518.50;;;18.27;100.00
9764;BME280;4921;43.214;27.936;2022-11-13T11:23:53;102525.72;;;17.60;100.00
9764;BME280;4921;43.214;27.936;2022-11-13T11:26:27;102518.16;;;17.10;100.00
9764;BME280;4921;43.214;27.936;2022-11-13T11:29:03;102518.31;;;17.41;100.00
9764;BME280;4921;43.214;27.936;2022-11-13T11:31:40;102519.47;;;17.15;100.00
9764;BME280;4921;43.214;27.936;2022-11-13T11:34:16;102512.59;;;16.78;100.00
9764;BME280;4921;43.214;27.936;2022-11-13T11:36:52;102520.09;;;16.37;100.00
9764;BME280;4921;43.214;27.936;2022-11-13T11:39:31;102523.28;;;16.42;100.00
9764;BME280;4921;43.214;27.936;2022-11-13T11:42:09;102517.97;;;16.42;100.00
9764;BME280;4921;43.214;27.936;2022-11-13T11:44:53;102529.03;;;16.12;100.00
9764;BME280;4921;43.214;27.936;2022-11-13T11:47:22;102523.50;;;16.15;100.00
9764;BME280;4921;43.214;27.936;2022-11-13T11:49:49;102525.75;;;16.09;100.00
9764;BME280;4921;43.214;27.936;2022-11-13T11:55:20;102520.50;;;16.20;100.00
9764;BME280;4921;43.214;27.936;2022-11-13T11:57:56;102508.31;;;16.17;100.00
9764;BME280;4921;43.214;27.936;2022-11-13T12:00:27;102509.84;;;16.09;100.00
9764;BME280;4921;43.214;27.936;2022-11-13T12:03:28;102510.81;;;15.95;100.00
9764;BME280;4921;43.214;27.936;2022-11-13T12:06:06;102502.53;;;15.99;100.00
9764;BME280;4921;43.214;27.936;2022-11-13T12:08:49;102493.13;;;16.19;100.00
9764;BME280;4921;43.214;27.936;2022-11-13T12:11:25;102495.03;;;16.17;100.00
9764;BME280;4921;43.214;27.936;2022-11-13T12:14:00;102498.69;;;16.03;100.00
9764;BME280;4921;43.214;27.936;2022-11-13T12:16:39;102501.06;;;15.95;100.00
9764;BME280;4921;43.214;27.936;2022-11-13T12:19:15;102494.69;;;15.85;100.00
9764;BME280;4921;43.214;27.936;2022-11-13T12:21:55;102489.91;;;15.90;100.00
9764;BME280;4921;43.214;27.936;2022-11-13T12:24:43;102495.81;;;16.07;100.00
9764;BME280;4921;43.214;27.936;2022-11-13T12:27:25;102463.84;;;16.08;100.00
9764;BME280;4921;43.214;27.936;2022-11-13T12:30:06;102493.63;;;16.24;100.00
9764;BME280;4921;43.214;27.936;2022-11-13T12:35:45;102487.97;;;16.29;100.00
9764;BME280;4921;43.214;27.936;2022-11-13T12:38:21;102484.84;;;16.35;100.00
9764;BME280;4921;43.214;27.936;2022-11-13T12:40:54;102481.44;;;16.45;100.00
9764;BME280;4921;43.214;27.936;2022-11-13T12:44:02;102488.25;;;16.37;100.00
9764;BME280;4921;43.214;27.936;2022-11-13T12:46:38;102488.53;;;16.45;100.00
9764;BME280;4921;43.214;27.936;2022-11-13T12:49:21;102491.75;;;16.37;100.00
9764;BME280;4921;43.214;27.936;2022-11-13T12:51:55;102495.13;;;16.39;100.00
9764;BME280;4921;43.214;27.936;2022-11-13T12:54:27;102483.22;;;16.45;100.00
9764;BME280;4921;43.214;27.936;2022-11-13T12:57:15;102480.44;;;16.46;100.00
9764;BME280;4921;43.214;27.936;2022-11-13T12:59:47;102477.06;;;16.21;100.00
9764;BME280;4921;43.214;27.936;2022-11-13T13:02:42;102485.97;;;16.20;100.00
9764;BME280;4921;43.214;27.936;2022-11-13T13:05:31;102489.81;;;15.92;100.00
9764;BME280;4921;43.214;27.936;2022-11-13T13:08:30;102485.91;;;15.85;100.00